Terminal Aerodrome Forecast
Issued by NWS

Home | Current Version | Previous Version | Text Only | Print | Product List | Glossary On
Versions: 1 2 3 4 5 6 7 8 9 10 11 12 13 14 15 16 17 18 19 20 21 22 23 24 25 26 27 28 29 30 31 32
000
FTUS44 KMOB 222236 AAB
TAFBFM
TAF AMD
KBFM 222236Z 2223/2318 20010G17KT P6SM VCSH BKN025 BKN035
      WS020/18040KT
      TEMPO 2223/2301 3SM SHRA BKN015
     FM230300 24009KT P6SM OVC030
     FM230500 27006KT 5SM -DZ BR OVC019
     FM231200 30006KT 6SM BR BKN015=

USA.gov is the U.S. government's official web portal to all federal, state and local government web resources and services.